Time;durP1;ratioP1;P1;durP2;ratioP2;P2;SDS_P1;SDS_P2;PMS_P1;PMS_P2;Temp;Humidity;BMP_temperature;BMP_pressure;BME280_temperature;BME280_humidity;BME280_pressure;Samples;Min_cycle;Max_cycle;Signal;HPM_P1;HPM_P2
2021/05/25 00:01:04;;;;;;;2.25;1.38;;;10.30;99.90;;;;;;5015493;28;20172;-81
2021/05/25 00:03:29;;;;;;;3.38;1.70;;;10.50;99.90;;;;;;5013050;28;20173;-80
2021/05/25 00:05:55;;;;;;;3.78;1.40;;;10.60;99.90;;;;;;5014004;28;20168;-80
2021/05/25 00:08:20;;;;;;;2.10;1.33;;;10.40;99.90;;;;;;5012886;28;20656;-81
2021/05/25 00:10:46;;;;;;;4.22;1.75;;;10.50;99.90;;;;;;5014915;28;20664;-80
2021/05/25 00:13:12;;;;;;;3.10;1.90;;;10.50;99.90;;;;;;5013231;28;20581;-80
2021/05/25 00:15:38;;;;;;;2.33;1.30;;;10.40;99.90;;;;;;5013364;28;20175;-81
2021/05/25 00:18:05;;;;;;;2.75;1.25;;;10.30;99.90;;;;;;5014862;28;20211;-81
2021/05/25 00:20:31;;;;;;;2.45;1.30;;;10.20;99.90;;;;;;5013149;28;20235;-82
2021/05/25 00:22:57;;;;;;;2.80;1.38;;;10.20;99.90;;;;;;5015041;28;20251;-82
2021/05/25 00:25:23;;;;;;;1.70;1.17;;;10.40;99.90;;;;;;5013569;28;20213;-80
2021/05/25 00:27:49;;;;;;;1.70;1.40;;;10.40;99.90;;;;;;5014423;28;20207;-81
2021/05/25 00:30:17;;;;;;;2.45;1.17;;;10.40;99.90;;;;;;5014412;28;20192;-81
2021/05/25 00:32:44;;;;;;;1.63;0.95;;;10.30;99.90;;;;;;5014642;28;20177;-81
2021/05/25 00:35:12;;;;;;;1.40;1.10;;;10.10;99.90;;;;;;5013516;28;20290;-80
2021/05/25 00:37:38;;;;;;;2.83;1.27;;;10.00;99.90;;;;;;5014216;28;20537;-80
2021/05/25 00:40:09;;;;;;;1.45;0.93;;;9.90;99.90;;;;;;5014264;28;20180;-81
2021/05/25 00:42:35;;;;;;;1.75;1.30;;;10.00;99.90;;;;;;5014972;28;20173;-81
2021/05/25 00:45:02;;;;;;;1.13;1.02;;;10.10;99.90;;;;;;5013418;28;20172;-82
2021/05/25 00:47:33;;;;;;;2.15;0.70;;;10.20;99.90;;;;;;5013378;28;20183;-82
2021/05/25 00:50:21;;;;;;;2.15;1.20;;;10.20;99.90;;;;;;5012996;28;20560;-81
2021/05/25 00:52:50;;;;;;;1.70;0.90;;;10.10;99.90;;;;;;5013648;28;20184;-81
2021/05/25 00:55:21;;;;;;;1.13;0.65;;;10.10;99.90;;;;;;5013076;28;20259;-81
2021/05/25 00:57:49;;;;;;;1.92;0.80;;;10.10;99.90;;;;;;5012876;28;20172;-80
2021/05/25 01:00:17;;;;;;;0.75;0.70;;;10.00;99.90;;;;;;5012442;28;20176;-81
2021/05/25 01:02:43;;;;;;;0.60;0.60;;;9.90;99.90;;;;;;5013816;28;20165;-82
2021/05/25 01:05:12;;;;;;;4.75;0.77;;;9.70;99.90;;;;;;5014195;28;20172;-81
2021/05/25 01:07:38;;;;;;;2.45;1.02;;;9.60;99.90;;;;;;5012260;28;20175;-82
2021/05/25 01:10:07;;;;;;;1.15;0.90;;;9.60;99.90;;;;;;5012529;28;20176;-80
2021/05/25 01:12:34;;;;;;;4.88;1.17;;;9.90;99.90;;;;;;5012787;28;20215;-81
2021/05/25 01:15:06;;;;;;;2.63;0.68;;;10.00;99.90;;;;;;5014359;28;20640;-80
2021/05/25 01:17:32;;;;;;;0.45;0.45;;;10.20;99.90;;;;;;5012597;28;20268;-81
2021/05/25 01:19:59;;;;;;;0.47;0.43;;;10.00;99.90;;;;;;5013622;28;20215;-81
2021/05/25 01:22:27;;;;;;;2.35;0.60;;;9.90;99.90;;;;;;5012475;28;20629;-81
2021/05/25 01:24:53;;;;;;;0.60;0.45;;;10.10;99.90;;;;;;5013858;28;20211;-82
2021/05/25 01:27:18;;;;;;;2.97;1.05;;;10.00;99.90;;;;;;5013239;28;20177;-81
2021/05/25 01:29:44;;;;;;;0.98;0.73;;;10.00;99.90;;;;;;5012911;28;20276;-81
2021/05/25 01:32:10;;;;;;;1.00;0.90;;;10.00;99.90;;;;;;5013158;28;20293;-81
2021/05/25 01:34:36;;;;;;;1.58;0.88;;;9.70;99.90;;;;;;5012458;28;20172;-80
2021/05/25 01:37:03;;;;;;;1.05;0.80;;;9.90;99.90;;;;;;5012755;28;20183;-81
2021/05/25 01:39:29;;;;;;;1.95;0.90;;;9.80;99.90;;;;;;5012090;28;20555;-81
2021/05/25 01:41:55;;;;;;;3.20;0.73;;;9.90;99.90;;;;;;5011812;28;20168;-82
2021/05/25 01:44:21;;;;;;;1.17;0.88;;;10.00;99.90;;;;;;5011946;28;20230;-82
2021/05/25 01:46:48;;;;;;;2.03;1.02;;;10.10;99.90;;;;;;5012652;28;20251;-82
2021/05/25 01:49:15;;;;;;;1.40;0.70;;;9.90;99.90;;;;;;5013267;28;20211;-81
2021/05/25 01:51:51;;;;;;;1.05;0.70;;;9.90;99.90;;;;;;5013457;28;20199;-80
2021/05/25 01:54:18;;;;;;;1.85;0.88;;;10.00;99.90;;;;;;5012831;28;20179;-81
2021/05/25 01:56:45;;;;;;;2.03;0.90;;;10.10;99.90;;;;;;5013167;28;20164;-81
2021/05/25 01:59:11;;;;;;;2.85;0.75;;;10.10;99.90;;;;;;5013046;28;20184;-81
2021/05/25 02:01:37;;;;;;;4.78;1.02;;;9.90;99.90;;;;;;5014825;28;20180;-82
2021/05/25 02:04:03;;;;;;;3.35;0.98;;;10.00;99.90;;;;;;5014771;28;20573;-82
2021/05/25 02:06:29;;;;;;;1.27;0.95;;;10.00;99.90;;;;;;5016195;28;20230;-79
2021/05/25 02:08:55;;;;;;;2.22;0.90;;;9.90;99.90;;;;;;5016384;28;20196;-81
2021/05/25 02:11:21;;;;;;;5.15;0.90;;;10.10;99.90;;;;;;5016667;28;20202;-81
2021/05/25 02:13:47;;;;;;;2.92;1.30;;;10.10;99.90;;;;;;5016521;28;20259;-81
2021/05/25 02:16:15;;;;;;;2.63;1.25;;;10.20;99.90;;;;;;5028460;28;20160;-81
2021/05/25 02:18:44;;;;;;;1.70;1.10;;;10.00;99.90;;;;;;5034121;28;20184;-80
2021/05/25 02:21:12;;;;;;;1.30;1.20;;;10.10;99.90;;;;;;5034450;28;20168;-80
2021/05/25 02:23:38;;;;;;;1.60;1.23;;;10.10;99.90;;;;;;5032669;28;20157;-80
2021/05/25 02:26:05;;;;;;;2.22;1.38;;;10.20;99.90;;;;;;5034732;28;20180;-80
2021/05/25 02:28:31;;;;;;;3.00;1.50;;;10.30;99.90;;;;;;5038211;28;20200;-81
2021/05/25 02:30:57;;;;;;;4.13;1.00;;;10.40;99.90;;;;;;5036505;28;20188;-81
2021/05/25 02:33:24;;;;;;;4.20;1.40;;;10.50;99.90;;;;;;5037415;28;20180;-80
2021/05/25 02:35:52;;;;;;;1.60;1.35;;;10.60;99.90;;;;;;5037955;28;20184;-80
2021/05/25 02:38:18;;;;;;;1.30;1.00;;;10.50;99.90;;;;;;5035904;28;20207;-80
2021/05/25 02:40:46;;;;;;;2.05;1.35;;;10.40;99.90;;;;;;5037353;28;20180;-80
2021/05/25 02:43:13;;;;;;;3.10;1.48;;;10.20;99.90;;;;;;5036248;28;20172;-80
2021/05/25 02:45:39;;;;;;;4.60;1.80;;;10.30;99.90;;;;;;5037139;28;20164;-82
2021/05/25 02:48:06;;;;;;;5.40;1.58;;;10.30;99.90;;;;;;5039580;28;20196;-81
2021/05/25 02:50:32;;;;;;;8.10;1.70;;;10.30;99.90;;;;;;5038471;28;20231;-81
2021/05/25 02:52:58;;;;;;;4.63;1.73;;;10.20;99.90;;;;;;5038142;28;20570;-81
2021/05/25 02:55:27;;;;;;;5.25;2.03;;;10.10;99.90;;;;;;5029753;28;20294;-81
2021/05/25 02:57:53;;;;;;;5.00;1.80;;;10.10;99.90;;;;;;5022614;28;20176;-82
2021/05/25 03:00:22;;;;;;;1.67;1.58;;;10.20;99.90;;;;;;5022572;28;20632;-82
2021/05/25 03:02:48;;;;;;;3.60;1.70;;;10.20;99.90;;;;;;5022983;28;20240;-82
2021/05/25 03:05:15;;;;;;;3.58;1.45;;;10.20;99.90;;;;;;5023784;28;20164;-81
2021/05/25 03:07:41;;;;;;;4.72;2.30;;;10.30;99.90;;;;;;5019060;28;20187;-81
2021/05/25 03:10:13;;;;;;;5.30;2.08;;;10.20;99.90;;;;;;5019833;28;20172;-81
2021/05/25 03:12:39;;;;;;;3.20;1.80;;;10.10;99.90;;;;;;5019053;28;20180;-81
2021/05/25 03:15:11;;;;;;;5.22;2.20;;;10.00;99.90;;;;;;5019959;28;20194;-82
2021/05/25 03:17:37;;;;;;;1.90;1.80;;;9.90;99.90;;;;;;5023435;28;20645;-82
2021/05/25 03:20:05;;;;;;;5.30;2.15;;;10.10;99.90;;;;;;5025373;28;20189;-81
2021/05/25 03:22:30;;;;;;;4.88;2.10;;;10.20;99.90;;;;;;5019721;28;20184;-82
2021/05/25 03:24:56;;;;;;;2.95;2.17;;;10.30;99.90;;;;;;5021403;28;20169;-82
2021/05/25 03:27:21;;;;;;;3.00;2.78;;;10.40;99.90;;;;;;5021833;28;20176;-81
2021/05/25 03:29:47;;;;;;;4.50;2.78;;;10.40;99.90;;;;;;5019768;28;20291;-81
2021/05/25 03:32:13;;;;;;;4.00;2.05;;;10.30;99.90;;;;;;5020260;28;20208;-80
2021/05/25 03:34:38;;;;;;;5.13;2.00;;;10.40;99.90;;;;;;5016313;28;20172;-82
2021/05/25 03:37:04;;;;;;;4.80;2.33;;;10.40;99.90;;;;;;5016246;28;20175;-82
2021/05/25 03:39:29;;;;;;;5.47;3.05;;;10.40;99.90;;;;;;5014258;28;20196;-81
2021/05/25 03:41:58;;;;;;;4.13;2.53;;;10.50;99.90;;;;;;5014032;28;20199;-81
2021/05/25 03:44:24;;;;;;;2.95;2.65;;;10.30;99.90;;;;;;5014348;28;20645;-81
2021/05/25 03:46:49;;;;;;;3.03;2.42;;;10.30;99.90;;;;;;5014019;28;20207;-81
2021/05/25 03:49:15;;;;;;;3.70;3.08;;;10.40;99.90;;;;;;5013886;28;20208;-81
2021/05/25 03:51:41;;;;;;;3.00;2.80;;;10.30;99.90;;;;;;5015324;28;20200;-80
2021/05/25 03:54:14;;;;;;;5.10;2.40;;;10.30;99.90;;;;;;5015366;28;20219;-81
2021/05/25 03:59:14;;;;;;;4.75;3.10;;;10.30;99.90;;;;;;5015428;28;20199;-80
2021/05/25 04:01:40;;;;;;;8.02;2.90;;;10.10;99.90;;;;;;5013711;28;20169;-80
2021/05/25 04:04:05;;;;;;;2.88;2.67;;;9.90;99.90;;;;;;5013429;28;20179;-80
2021/05/25 04:06:31;;;;;;;3.22;2.92;;;9.90;99.90;;;;;;5013497;28;20275;-81
2021/05/25 04:08:57;;;;;;;3.35;2.83;;;10.10;99.90;;;;;;5015002;28;20549;-80
2021/05/25 04:11:22;;;;;;;4.43;2.80;;;10.20;99.90;;;;;;5013349;28;20208;-82
2021/05/25 04:13:48;;;;;;;8.30;3.33;;;10.10;99.90;;;;;;5003369;28;20229;-81
2021/05/25 04:16:14;;;;;;;4.32;3.17;;;10.00;99.90;;;;;;4975404;28;20236;-83
2021/05/25 04:18:41;;;;;;;11.43;3.45;;;10.00;99.90;;;;;;4975280;28;20601;-80
2021/05/25 04:21:08;;;;;;;6.55;3.60;;;10.00;99.90;;;;;;4974157;28;20537;-80
2021/05/25 04:23:38;;;;;;;3.10;2.80;;;10.10;99.90;;;;;;4975660;28;20182;-80
2021/05/25 04:26:04;;;;;;;7.47;2.35;;;10.00;99.90;;;;;;4991466;28;20179;-80
2021/05/25 04:28:30;;;;;;;5.85;2.75;;;9.80;99.90;;;;;;5014342;28;20207;-80
2021/05/25 04:30:55;;;;;;;6.95;2.90;;;9.90;99.90;;;;;;5014554;28;20560;-81
2021/05/25 04:33:21;;;;;;;3.17;2.17;;;10.00;99.90;;;;;;5014654;28;20168;-81
2021/05/25 04:35:47;;;;;;;2.08;1.88;;;10.20;99.90;;;;;;5013057;28;20613;-81
2021/05/25 04:38:13;;;;;;;2.03;1.83;;;10.20;99.90;;;;;;5014019;28;20180;-81
2021/05/25 04:40:42;;;;;;;2.88;2.63;;;10.30;99.90;;;;;;5012626;28;20175;-81
2021/05/25 04:43:09;;;;;;;3.28;2.63;;;10.30;99.90;;;;;;5013736;28;20253;-81
2021/05/25 04:45:37;;;;;;;3.92;3.63;;;10.20;99.90;;;;;;5011378;28;20251;-81
2021/05/25 04:48:03;;;;;;;4.20;3.65;;;10.10;99.90;;;;;;4993101;28;20189;-81
2021/05/25 04:50:29;;;;;;;6.85;3.83;;;10.00;99.90;;;;;;4993114;28;20217;-82
2021/05/25 04:52:55;;;;;;;5.40;4.80;;;10.20;99.90;;;;;;4993178;28;20200;-81
2021/05/25 04:55:22;;;;;;;12.65;4.25;;;10.30;99.90;;;;;;4993236;28;20173;-82
2021/05/25 04:57:49;;;;;;;5.65;4.25;;;10.30;99.90;;;;;;4993406;28;20537;-82
2021/05/25 05:00:18;;;;;;;11.52;5.93;;;10.40;99.90;;;;;;4993335;28;20169;-82
2021/05/25 05:02:44;;;;;;;8.27;4.75;;;10.50;99.90;;;;;;4993345;28;20173;-80
2021/05/25 05:05:11;;;;;;;5.80;5.28;;;10.70;99.90;;;;;;5004206;28;20517;-82
2021/05/25 05:07:36;;;;;;;8.77;5.25;;;10.80;99.90;;;;;;5012359;28;20183;-82
2021/05/25 05:10:04;;;;;;;5.32;4.70;;;10.70;99.90;;;;;;5012235;28;20192;-82
2021/05/25 05:12:30;;;;;;;11.30;5.05;;;10.70;99.90;;;;;;4997947;28;20204;-82
2021/05/25 05:14:56;;;;;;;5.07;4.68;;;10.70;99.90;;;;;;4973389;28;20201;-82
2021/05/25 05:17:23;;;;;;;8.27;5.05;;;10.60;99.90;;;;;;4974110;28;20177;-82
2021/05/25 05:19:50;;;;;;;5.80;4.63;;;10.70;99.90;;;;;;4974688;28;20236;-82
2021/05/25 05:22:16;;;;;;;5.57;5.07;;;10.70;99.90;;;;;;4974936;28;20634;-82
2021/05/25 05:24:42;;;;;;;6.18;5.68;;;10.70;99.90;;;;;;4974688;28;20180;-82
2021/05/25 05:27:07;;;;;;;6.82;6.15;;;10.70;99.90;;;;;;4975859;28;20165;-82
2021/05/25 05:29:33;;;;;;;6.47;5.75;;;10.90;99.90;;;;;;4977366;28;20189;-82
2021/05/25 05:31:59;;;;;;;4.97;4.47;;;10.90;99.90;;;;;;4978480;28;20220;-82
2021/05/25 05:34:24;;;;;;;6.13;5.50;;;10.80;99.90;;;;;;4977792;28;20172;-82
2021/05/25 05:36:50;;;;;;;8.80;5.05;;;10.80;99.90;;;;;;4977909;28;20252;-82
2021/05/25 05:39:16;;;;;;;6.00;5.53;;;11.10;99.90;;;;;;4978618;28;20162;-82
2021/05/25 05:41:41;;;;;;;7.63;5.47;;;11.30;99.90;;;;;;4976301;28;20173;-81
2021/05/25 05:44:07;;;;;;;6.88;5.65;;;11.20;99.90;;;;;;4983068;28;20170;-81
2021/05/25 05:46:33;;;;;;;5.65;5.07;;;11.30;99.90;;;;;;4985845;28;20173;-81
2021/05/25 05:48:58;;;;;;;6.85;4.63;;;11.10;99.90;;;;;;4987331;28;20194;-80
2021/05/25 05:51:24;;;;;;;7.75;4.53;;;11.10;99.90;;;;;;4993057;28;20220;-83
2021/05/25 05:53:50;;;;;;;5.72;4.85;;;11.00;99.90;;;;;;4992314;28;20181;-81
2021/05/25 05:56:19;;;;;;;23.35;5.70;;;11.10;99.90;;;;;;4994540;28;20164;-81
2021/05/25 05:58:46;;;;;;;23.33;6.32;;;11.10;99.90;;;;;;4994904;28;20190;-80
2021/05/25 06:01:13;;;;;;;7.05;3.88;;;11.10;99.90;;;;;;4997836;28;20174;-81
2021/05/25 06:03:39;;;;;;;6.07;3.53;;;10.90;99.90;;;;;;4996333;28;20195;-80
2021/05/25 06:06:06;;;;;;;35.85;6.15;;;10.80;99.90;;;;;;4994600;28;20197;-80
2021/05/25 06:08:32;;;;;;;54.65;9.90;;;10.90;99.90;;;;;;4991962;28;20194;-81
2021/05/25 06:10:57;;;;;;;4.25;2.72;;;11.00;99.90;;;;;;4995104;28;20228;-81
2021/05/25 06:13:24;;;;;;;3.95;2.63;;;10.90;99.90;;;;;;4997057;28;20178;-81
2021/05/25 06:15:55;;;;;;;6.00;2.50;;;10.90;99.90;;;;;;4995824;28;20226;-82
2021/05/25 06:18:21;;;;;;;20.95;3.97;;;11.00;99.90;;;;;;4986543;28;20631;-81
2021/05/25 06:20:46;;;;;;;3.40;2.63;;;10.90;99.90;;;;;;4973353;28;20169;-81
2021/05/25 06:23:12;;;;;;;24.05;3.60;;;11.00;99.90;;;;;;4974557;28;20201;-82
2021/05/25 06:25:38;;;;;;;15.75;2.75;;;10.90;99.90;;;;;;4974215;28;20541;-80
2021/05/25 06:28:03;;;;;;;4.70;2.85;;;11.00;99.90;;;;;;5008404;28;20220;-80
2021/05/25 06:30:31;;;;;;;6.55;2.55;;;11.00;99.90;;;;;;5012253;28;20678;-79
2021/05/25 06:32:57;;;;;;;7.55;3.00;;;11.00;99.90;;;;;;5012443;28;20203;-80
2021/05/25 06:35:23;;;;;;;2.80;2.60;;;11.20;99.90;;;;;;5012218;28;20196;-80
2021/05/25 06:37:48;;;;;;;2.40;2.03;;;11.30;99.90;;;;;;5012034;28;20646;-80
2021/05/25 06:40:14;;;;;;;2.00;1.90;;;11.30;99.90;;;;;;5012649;28;20177;-80
2021/05/25 06:42:40;;;;;;;3.25;2.58;;;11.00;99.90;;;;;;5010895;28;20164;-82
2021/05/25 06:45:08;;;;;;;3.20;2.90;;;10.90;99.90;;;;;;5011952;28;20235;-85
2021/05/25 06:47:33;;;;;;;2.45;2.25;;;10.90;99.90;;;;;;5011151;28;20180;-80
2021/05/25 06:49:59;;;;;;;19.67;2.70;;;10.90;99.90;;;;;;5013339;28;20196;-82
2021/05/25 06:52:24;;;;;;;10.25;2.90;;;10.90;99.90;;;;;;5002481;28;20294;-81
2021/05/25 06:54:50;;;;;;;12.77;3.63;;;11.10;99.90;;;;;;4994114;28;20165;-81
2021/05/25 06:57:16;;;;;;;11.65;2.90;;;11.40;99.90;;;;;;4995991;28;20182;-83
2021/05/25 06:59:41;;;;;;;12.23;3.08;;;11.60;99.90;;;;;;4994697;28;20288;-85
2021/05/25 07:02:07;;;;;;;6.85;2.75;;;11.80;99.90;;;;;;4996554;28;20170;-81
2021/05/25 07:04:33;;;;;;;8.02;2.83;;;11.90;99.90;;;;;;4995649;28;20170;-81
2021/05/25 07:06:58;;;;;;;3.78;2.50;;;12.30;99.90;;;;;;4995465;28;20205;-81
2021/05/25 07:09:24;;;;;;;2.50;2.13;;;12.50;99.90;;;;;;4994520;28;20248;-80
2021/05/25 07:11:50;;;;;;;3.80;1.83;;;13.00;99.90;;;;;;4995039;28;20209;-83
2021/05/25 07:14:15;;;;;;;11.80;2.38;;;13.20;99.90;;;;;;4995641;28;20176;-83
2021/05/25 07:16:41;;;;;;;11.55;2.30;;;13.30;99.90;;;;;;4996553;28;20180;-83
2021/05/25 07:19:07;;;;;;;3.33;2.20;;;13.00;99.90;;;;;;4994670;28;20185;-80
2021/05/25 07:21:32;;;;;;;11.70;3.33;;;12.80;99.90;;;;;;4994899;28;20166;-82
2021/05/25 07:23:58;;;;;;;2.90;2.63;;;12.70;99.90;;;;;;4993320;28;20177;-81
2021/05/25 07:26:24;;;;;;;17.70;4.00;;;12.40;99.90;;;;;;4996171;28;20640;-83
2021/05/25 07:28:50;;;;;;;3.40;2.65;;;12.40;99.90;;;;;;4997577;28;20189;-85
2021/05/25 07:31:17;;;;;;;10.95;2.90;;;12.30;99.90;;;;;;4996797;28;20736;-84
2021/05/25 07:33:44;;;;;;;10.60;2.63;;;12.30;99.90;;;;;;4995053;28;20181;-81
2021/05/25 07:36:10;;;;;;;6.78;2.53;;;12.30;99.90;;;;;;4996335;28;20182;-81
2021/05/25 07:38:35;;;;;;;7.53;2.63;;;12.40;99.90;;;;;;4995633;28;20196;-81
2021/05/25 07:41:01;;;;;;;4.72;2.75;;;12.30;99.90;;;;;;4994537;28;20177;-81
2021/05/25 07:43:27;;;;;;;13.05;2.60;;;12.30;99.90;;;;;;4996128;28;20535;-80
2021/05/25 07:45:52;;;;;;;6.22;2.28;;;12.50;99.90;;;;;;4994973;28;20267;-81
2021/05/25 07:48:18;;;;;;;6.30;2.10;;;12.60;99.90;;;;;;4995903;28;20189;-82
2021/05/25 07:50:44;;;;;;;11.60;3.10;;;12.60;99.90;;;;;;4996243;28;20244;-85
2021/05/25 07:53:09;;;;;;;18.48;2.75;;;12.80;99.90;;;;;;4998603;28;20211;-84
2021/05/25 07:55:36;;;;;;;4.90;2.20;;;13.10;99.90;;;;;;4997701;28;20495;-85
2021/05/25 07:58:03;;;;;;;11.20;2.33;;;13.10;99.90;;;;;;4997101;28;20192;-84
2021/05/25 08:00:29;;;;;;;5.72;2.45;;;13.30;99.90;;;;;;4997182;28;20165;-85
2021/05/25 08:02:56;;;;;;;2.55;1.67;;;13.60;99.90;;;;;;4998024;28;20173;-83
2021/05/25 08:05:24;;;;;;;4.93;1.83;;;13.50;99.90;;;;;;4995879;28;20169;-83
2021/05/25 08:07:50;;;;;;;4.47;2.25;;;13.50;99.90;;;;;;4994844;28;20165;-83
2021/05/25 08:10:17;;;;;;;1.70;1.27;;;13.80;99.90;;;;;;4994809;28;20272;-85
2021/05/25 08:12:43;;;;;;;4.47;2.22;;;14.00;99.90;;;;;;4995849;28;20621;-88
2021/05/25 08:15:15;;;;;;;13.80;1.92;;;14.00;99.90;;;;;;4984690;28;20249;-79
2021/05/25 08:20:18;;;;;;;11.55;1.98;;;14.20;99.90;;;;;;4995047;28;20855;-82
2021/05/25 08:22:49;;;;;;;9.05;1.92;;;14.30;99.90;;;;;;4994370;28;20173;-81
2021/05/25 08:25:17;;;;;;;10.18;2.47;;;14.20;99.90;;;;;;4984512;28;20174;-81
2021/05/25 08:27:50;;;;;;;2.42;1.42;;;14.40;99.90;;;;;;4975344;28;20188;-82
2021/05/25 08:30:18;;;;;;;4.00;1.50;;;14.50;99.90;;;;;;4973762;28;20209;-80
2021/05/25 08:32:44;;;;;;;6.85;1.65;;;14.40;99.90;;;;;;4973773;28;20178;-81
2021/05/25 08:35:11;;;;;;;2.42;1.52;;;14.40;99.90;;;;;;4974623;28;20208;-81
2021/05/25 08:37:37;;;;;;;5.88;2.13;;;14.40;99.90;;;;;;4974486;28;20173;-81
2021/05/25 08:40:06;;;;;;;35.42;3.10;;;14.50;99.90;;;;;;4973814;28;20697;-80
2021/05/25 08:42:32;;;;;;;4.65;1.38;;;14.70;99.90;;;;;;4975607;28;20166;-79
2021/05/25 08:44:58;;;;;;;14.98;1.88;;;14.80;99.90;;;;;;4974003;28;20233;-79
2021/05/25 08:47:25;;;;;;;10.10;1.05;;;14.90;99.90;;;;;;4975211;28;20170;-79
2021/05/25 08:49:51;;;;;;;10.52;2.22;;;14.90;99.90;;;;;;4974789;28;20275;-81
2021/05/25 08:52:17;;;;;;;5.97;1.42;;;15.10;99.90;;;;;;4975169;28;20725;-81
2021/05/25 08:54:44;;;;;;;2.00;1.00;;;15.10;99.90;;;;;;4983047;28;20166;-80
2021/05/25 08:57:12;;;;;;;0.93;0.63;;;15.20;99.90;;;;;;4994595;28;20185;-81
2021/05/25 08:59:38;;;;;;;5.97;1.00;;;15.40;99.90;;;;;;4993711;28;20181;-81
2021/05/25 09:02:05;;;;;;;0.88;0.63;;;15.70;99.90;;;;;;4992749;28;20175;-80
2021/05/25 09:04:59;;;;;;;12.43;1.70;;;16.00;99.90;;;;;;4991342;28;20179;-80
2021/05/25 09:07:47;;;;;;;3.28;1.15;;;16.20;99.90;;;;;;4992878;28;20268;-79
2021/05/25 09:10:15;;;;;;;7.50;0.88;;;16.00;99.90;;;;;;4993192;28;20184;-81
2021/05/25 09:12:44;;;;;;;1.42;0.80;;;16.30;99.90;;;;;;4992595;28;20176;-79
2021/05/25 09:15:11;;;;;;;7.68;1.30;;;16.60;99.90;;;;;;4972580;28;20178;-78
2021/05/25 09:17:38;;;;;;;4.47;1.10;;;16.60;99.90;;;;;;4974605;28;20173;-79
2021/05/25 09:20:05;;;;;;;2.10;0.73;;;16.20;99.90;;;;;;4975589;28;20190;-78
2021/05/25 09:22:31;;;;;;;15.85;2.53;;;16.10;99.90;;;;;;4975059;28;20170;-79
2021/05/25 09:24:58;;;;;;;7.75;1.48;;;16.20;99.90;;;;;;4973273;28;20291;-81
2021/05/25 09:27:39;;;;;;;30.27;4.13;;;16.40;99.90;;;;;;4975291;28;20170;-81
2021/05/25 09:30:17;;;;;;;18.20;2.33;;;16.80;99.90;;;;;;4974895;28;20189;-78
2021/05/25 09:32:53;;;;;;;4.38;1.15;;;16.40;99.90;;;;;;4974658;28;20537;-78
2021/05/25 09:35:21;;;;;;;6.78;1.77;;;16.00;99.90;;;;;;4978793;28;20170;-78
2021/05/25 09:37:52;;;;;;;7.93;1.20;;;15.40;99.90;;;;;;4979967;28;20173;-77
2021/05/25 09:40:21;;;;;;;4.75;1.25;;;15.20;99.90;;;;;;4974224;28;20192;-78
2021/05/25 09:42:53;;;;;;;3.13;1.30;;;14.90;99.90;;;;;;4973345;28;20627;-79
2021/05/25 09:45:20;;;;;;;13.63;1.95;;;14.50;99.90;;;;;;4974991;28;20169;-81
2021/05/25 09:47:51;;;;;;;2.65;1.27;;;14.30;99.90;;;;;;4974668;28;20166;-81
2021/05/25 09:50:19;;;;;;;4.60;1.45;;;14.20;99.90;;;;;;4974311;28;20177;-81
2021/05/25 09:53:11;;;;;;;5.53;1.30;;;14.30;99.90;;;;;;4974929;28;20173;-81
2021/05/25 09:55:49;;;;;;;8.57;1.42;;;14.50;99.90;;;;;;4976791;28;20170;-80
2021/05/25 09:58:15;;;;;;;2.95;1.33;;;14.60;99.90;;;;;;4980604;28;20192;-79
2021/05/25 10:00:44;;;;;;;3.13;1.05;;;15.00;99.90;;;;;;4975186;28;20177;-80
2021/05/25 10:03:16;;;;;;;10.57;1.20;;;15.20;99.90;;;;;;4974469;28;20166;-80
2021/05/25 10:05:48;;;;;;;8.77;1.17;;;15.40;99.90;;;;;;4973582;28;20178;-80
2021/05/25 10:08:16;;;;;;;4.10;0.93;;;15.50;99.90;;;;;;4974523;28;20200;-80
2021/05/25 10:10:43;;;;;;;6.10;0.98;;;15.40;99.90;;;;;;4973615;28;20197;-80
2021/05/25 10:13:10;;;;;;;7.03;0.57;;;14.90;99.90;;;;;;4974924;28;20260;-80
2021/05/25 10:15:36;;;;;;;3.67;1.00;;;13.70;99.90;;;;;;4974770;28;20215;-80
2021/05/25 10:20:29;;;;;;;3.80;0.80;;;12.20;99.90;;;;;;4974998;28;20189;-78
2021/05/25 10:22:55;;;;;;;6.43;1.15;;;12.10;99.90;;;;;;4974663;28;20670;-79
2021/05/25 10:25:22;;;;;;;0.60;0.45;;;12.00;99.90;;;;;;4974657;28;20173;-80
2021/05/25 10:27:48;;;;;;;4.57;0.60;;;11.80;99.90;;;;;;4978654;28;20162;-80
2021/05/25 10:30:26;;;;;;;3.55;0.47;;;11.90;99.90;;;;;;4976943;28;20233;-82
2021/05/25 10:33:07;;;;;;;1.08;0.60;;;12.00;99.90;;;;;;4978331;28;20260;-81
2021/05/25 10:36:01;;;;;;;1.63;0.85;;;12.20;99.90;;;;;;4978179;28;20182;-80
2021/05/25 10:38:30;;;;;;;4.63;1.23;;;12.80;99.90;;;;;;4978165;28;20215;-81
2021/05/25 10:41:03;;;;;;;0.98;0.98;;;13.60;99.90;;;;;;4976969;28;20162;-79
2021/05/25 10:43:34;;;;;;;1.17;1.08;;;14.00;99.90;;;;;;4981440;28;20182;-79
2021/05/25 10:46:12;;;;;;;6.88;1.52;;;14.40;99.90;;;;;;4988447;28;20587;-80
2021/05/25 10:51:45;;;;;;;1.77;1.35;;;14.40;99.90;;;;;;4984484;28;20226;-79
2021/05/25 10:54:26;;;;;;;1.52;1.42;;;14.30;99.90;;;;;;4977223;28;20172;-80
2021/05/25 10:56:53;;;;;;;13.13;2.25;;;14.60;99.90;;;;;;4977918;28;20188;-79
2021/05/25 10:59:19;;;;;;;1.90;0.88;;;15.10;99.90;;;;;;4983344;28;20605;-80
2021/05/25 11:01:54;;;;;;;3.03;0.85;;;15.20;99.90;;;;;;4991754;28;20192;-80
2021/05/25 11:04:23;;;;;;;39.30;4.32;;;15.40;99.90;;;;;;4996730;28;20173;-80
2021/05/25 11:06:50;;;;;;;3.50;0.95;;;15.50;99.90;;;;;;4998348;28;20166;-81
2021/05/25 11:09:27;;;;;;;1.13;1.00;;;15.60;99.90;;;;;;4997936;28;20193;-80
2021/05/25 11:12:14;;;;;;;5.38;1.67;;;15.80;99.90;;;;;;4997750;28;20217;-79
2021/05/25 11:15:15;;;;;;;4.55;1.00;;;15.90;99.90;;;;;;4996332;28;20264;-80
2021/05/25 11:17:44;;;;;;;2.40;0.90;;;15.40;99.90;;;;;;4996080;28;20545;-81
2021/05/25 11:20:28;;;;;;;15.13;1.65;;;15.40;99.90;;;;;;4996534;28;20252;-79
2021/05/25 11:22:54;;;;;;;3.47;1.08;;;15.20;99.90;;;;;;4996832;28;20179;-80
2021/05/25 11:25:39;;;;;;;5.55;1.50;;;15.40;99.90;;;;;;4994720;28;20260;-80
2021/05/25 11:28:05;;;;;;;7.15;1.27;;;15.60;99.90;;;;;;4986681;28;20732;-80
2021/05/25 11:30:31;;;;;;;16.33;1.88;;;15.60;99.90;;;;;;4995559;28;20208;-79
2021/05/25 11:33:00;;;;;;;5.47;1.60;;;15.60;99.90;;;;;;4996571;28;20165;-80
2021/05/25 11:35:28;;;;;;;33.83;4.13;;;15.70;99.90;;;;;;4996569;28;20162;-80
2021/05/25 11:37:58;;;;;;;6.88;1.23;;;16.00;99.90;;;;;;4996198;28;20232;-80
2021/05/25 11:40:30;;;;;;;3.97;0.85;;;16.10;99.90;;;;;;4999676;28;20315;-79
2021/05/25 11:42:56;;;;;;;6.35;0.90;;;16.10;99.90;;;;;;4998780;28;20165;-79
2021/05/25 11:45:24;;;;;;;5.63;0.93;;;16.30;99.90;;;;;;4996656;28;20257;-81
2021/05/25 11:48:22;;;;;;;3.28;1.10;;;16.40;99.90;;;;;;4997451;28;20172;-80
2021/05/25 11:50:48;;;;;;;7.75;0.95;;;16.50;99.90;;;;;;4996076;28;20220;-80
2021/05/25 11:53:24;;;;;;;3.53;1.20;;;16.40;99.90;;;;;;4995907;28;20173;-80
2021/05/25 11:55:50;;;;;;;2.00;0.90;;;16.30;99.90;;;;;;4994615;28;20615;-80
2021/05/25 11:58:16;;;;;;;18.67;1.30;;;16.30;99.90;;;;;;4996312;28;20272;-80
2021/05/25 12:00:41;;;;;;;6.40;1.27;;;16.50;99.90;;;;;;4995319;28;20173;-79
2021/05/25 12:03:09;;;;;;;8.48;0.82;;;16.80;99.90;;;;;;5014971;28;20332;-78
2021/05/25 12:05:34;;;;;;;3.85;1.00;;;17.00;99.90;;;;;;5015075;28;20164;-78
2021/05/25 12:08:02;;;;;;;1.92;0.70;;;17.00;99.90;;;;;;5015245;28;20176;-78
2021/05/25 12:10:42;;;;;;;2.53;0.93;;;16.90;99.90;;;;;;5015143;28;20238;-78
2021/05/25 12:13:18;;;;;;;4.63;0.82;;;16.80;99.90;;;;;;5015927;28;20207;-78
2021/05/25 12:15:49;;;;;;;3.25;0.65;;;16.30;99.90;;;;;;5014302;28;20218;-78
2021/05/25 12:18:21;;;;;;;10.25;0.60;;;16.30;99.90;;;;;;5006689;28;20193;-80
2021/05/25 12:20:52;;;;;;;4.72;0.70;;;16.10;99.90;;;;;;4994473;28;20169;-79
2021/05/25 12:23:21;;;;;;;3.20;0.88;;;16.40;99.90;;;;;;4997117;28;20521;-80
2021/05/25 12:25:54;;;;;;;9.82;2.33;;;16.70;99.90;;;;;;4996496;28;20212;-80
2021/05/25 12:28:30;;;;;;;6.35;1.33;;;16.60;99.90;;;;;;4995717;28;20232;-78
2021/05/25 12:30:56;;;;;;;3.13;0.93;;;16.70;99.90;;;;;;4994695;28;20204;-78
2021/05/25 12:33:26;;;;;;;6.50;1.23;;;17.00;99.90;;;;;;4995289;28;20177;-79
2021/05/25 12:35:52;;;;;;;6.18;0.75;;;17.00;99.90;;;;;;4994082;28;20538;-79
2021/05/25 12:38:21;;;;;;;2.83;0.70;;;17.00;99.90;;;;;;4995247;28;20520;-80
2021/05/25 12:40:58;;;;;;;5.78;0.80;;;16.90;99.90;;;;;;4994738;28;20180;-81
2021/05/25 12:43:28;;;;;;;6.72;1.20;;;16.80;99.90;;;;;;4994433;28;20168;-79
2021/05/25 12:46:04;;;;;;;2.85;0.70;;;17.00;99.90;;;;;;4996161;28;20252;-79
2021/05/25 12:48:43;;;;;;;15.15;1.77;;;17.30;99.90;;;;;;4995791;28;20665;-79
2021/05/25 12:51:11;;;;;;;15.88;1.20;;;17.40;99.90;;;;;;4994550;28;20204;-80
2021/05/25 12:53:48;;;;;;;2.35;0.70;;;17.70;99.90;;;;;;4995865;28;20176;-80
2021/05/25 12:56:18;;;;;;;12.15;0.90;;;17.50;99.90;;;;;;4995177;28;20161;-78
2021/05/25 12:58:45;;;;;;;2.45;1.15;;;17.50;99.90;;;;;;4995198;28;20192;-78
2021/05/25 13:01:34;;;;;;;1.58;0.77;;;17.00;99.90;;;;;;4996377;28;20169;-80